sensor_id;sensor_type;location;lat;lon;timestamp;temperature;humidity
1083;DHT22;530;51.448;7.238;2023-11-21T00:01:54;7.50;99.90
1083;DHT22;530;51.448;7.238;2023-11-21T00:04:20;7.50;99.90
1083;DHT22;530;51.448;7.238;2023-11-21T00:06:46;7.50;99.90
1083;DHT22;530;51.448;7.238;2023-11-21T00:09:13;7.50;99.90
1083;DHT22;530;51.448;7.238;2023-11-21T00:11:41;7.50;99.90
1083;DHT22;530;51.448;7.238;2023-11-21T00:14:07;7.60;99.90
1083;DHT22;530;51.448;7.238;2023-11-21T00:16:33;7.60;99.90
1083;DHT22;530;51.448;7.238;2023-11-21T00:18:59;7.60;99.90
1083;DHT22;530;51.448;7.238;2023-11-21T00:21:25;7.70;99.90
1083;DHT22;530;51.448;7.238;2023-11-21T00:23:51;7.80;99.90
1083;DHT22;530;51.448;7.238;2023-11-21T00:26:17;7.80;99.90
1083;DHT22;530;51.448;7.238;2023-11-21T00:28:42;7.80;99.90
1083;DHT22;530;51.448;7.238;2023-11-21T00:31:08;7.80;99.90
1083;DHT22;530;51.448;7.238;2023-11-21T00:33:34;7.80;99.90
1083;DHT22;530;51.448;7.238;2023-11-21T00:36:00;7.70;99.90
1083;DHT22;530;51.448;7.238;2023-11-21T00:38:26;7.70;99.90
1083;DHT22;530;51.448;7.238;2023-11-21T00:40:53;7.80;99.90
1083;DHT22;530;51.448;7.238;2023-11-21T00:43:22;7.80;99.90
1083;DHT22;530;51.448;7.238;2023-11-21T00:45:48;7.80;99.90
1083;DHT22;530;51.448;7.238;2023-11-21T00:48:17;7.90;99.90
1083;DHT22;530;51.448;7.238;2023-11-21T00:50:44;8.00;99.90
1083;DHT22;530;51.448;7.238;2023-11-21T00:53:09;8.00;99.90
1083;DHT22;530;51.448;7.238;2023-11-21T00:55:36;8.10;99.90
1083;DHT22;530;51.448;7.238;2023-11-21T00:58:02;8.10;99.90
1083;DHT22;530;51.448;7.238;2023-11-21T01:00:29;8.20;99.90
1083;DHT22;530;51.448;7.238;2023-11-21T01:02:55;8.20;99.90
1083;DHT22;530;51.448;7.238;2023-11-21T01:05:21;8.30;99.90
1083;DHT22;530;51.448;7.238;2023-11-21T01:07:47;8.30;99.90
1083;DHT22;530;51.448;7.238;2023-11-21T01:10:13;8.30;99.90
1083;DHT22;530;51.448;7.238;2023-11-21T01:12:39;8.30;99.90
1083;DHT22;530;51.448;7.238;2023-11-21T01:15:05;8.40;99.90
1083;DHT22;530;51.448;7.238;2023-11-21T01:17:34;8.40;99.90
1083;DHT22;530;51.448;7.238;2023-11-21T01:20:01;8.40;99.90
1083;DHT22;530;51.448;7.238;2023-11-21T01:22:28;8.40;99.90
1083;DHT22;530;51.448;7.238;2023-11-21T01:24:54;8.40;99.90
1083;DHT22;530;51.448;7.238;2023-11-21T01:27:20;8.40;99.90
1083;DHT22;530;51.448;7.238;2023-11-21T01:29:46;8.30;99.90
1083;DHT22;530;51.448;7.238;2023-11-21T01:32:11;8.30;99.90
1083;DHT22;530;51.448;7.238;2023-11-21T01:34:37;8.40;99.90
1083;DHT22;530;51.448;7.238;2023-11-21T01:37:04;8.30;99.90
1083;DHT22;530;51.448;7.238;2023-11-21T01:39:31;8.40;99.90
1083;DHT22;530;51.448;7.238;2023-11-21T01:41:57;8.40;99.90
1083;DHT22;530;51.448;7.238;2023-11-21T01:44:26;8.40;99.90
1083;DHT22;530;51.448;7.238;2023-11-21T01:46:52;8.40;99.90
1083;DHT22;530;51.448;7.238;2023-11-21T01:49:19;8.50;99.90
1083;DHT22;530;51.448;7.238;2023-11-21T01:51:48;8.50;99.90
1083;DHT22;530;51.448;7.238;2023-11-21T01:54:17;8.50;99.90
1083;DHT22;530;51.448;7.238;2023-11-21T01:56:47;8.50;99.90
1083;DHT22;530;51.448;7.238;2023-11-21T01:59:17;8.60;99.90
1083;DHT22;530;51.448;7.238;2023-11-21T02:01:43;8.50;99.90
1083;DHT22;530;51.448;7.238;2023-11-21T02:04:09;8.50;99.90
1083;DHT22;530;51.448;7.238;2023-11-21T02:06:35;8.50;99.90
1083;DHT22;530;51.448;7.238;2023-11-21T02:09:01;8.50;99.90
1083;DHT22;530;51.448;7.238;2023-11-21T02:11:26;8.50;99.90
1083;DHT22;530;51.448;7.238;2023-11-21T02:13:53;8.60;99.90
1083;DHT22;530;51.448;7.238;2023-11-21T02:16:19;8.50;99.90
1083;DHT22;530;51.448;7.238;2023-11-21T02:18:47;8.50;99.90
1083;DHT22;530;51.448;7.238;2023-11-21T02:21:14;8.50;99.90
1083;DHT22;530;51.448;7.238;2023-11-21T02:23:40;8.60;99.90
1083;DHT22;530;51.448;7.238;2023-11-21T02:26:10;8.60;99.90
1083;DHT22;530;51.448;7.238;2023-11-21T02:28:36;8.60;99.90
1083;DHT22;530;51.448;7.238;2023-11-21T02:31:04;8.50;99.90
1083;DHT22;530;51.448;7.238;2023-11-21T02:33:30;8.60;99.90
1083;DHT22;530;51.448;7.238;2023-11-21T02:36:00;8.60;99.90
1083;DHT22;530;51.448;7.238;2023-11-21T02:38:25;8.60;99.90
1083;DHT22;530;51.448;7.238;2023-11-21T02:40:51;8.60;99.90
1083;DHT22;530;51.448;7.238;2023-11-21T02:43:17;8.60;99.90
1083;DHT22;530;51.448;7.238;2023-11-21T02:45:43;8.60;99.90
1083;DHT22;530;51.448;7.238;2023-11-21T02:48:08;8.60;99.90
1083;DHT22;530;51.448;7.238;2023-11-21T02:50:34;8.60;99.90
1083;DHT22;530;51.448;7.238;2023-11-21T02:53:01;8.60;99.90
1083;DHT22;530;51.448;7.238;2023-11-21T02:55:27;8.50;99.90
1083;DHT22;530;51.448;7.238;2023-11-21T02:57:53;8.50;99.90
1083;DHT22;530;51.448;7.238;2023-11-21T03:00:21;8.50;99.90
1083;DHT22;530;51.448;7.238;2023-11-21T03:02:49;8.50;99.90
1083;DHT22;530;51.448;7.238;2023-11-21T03:05:15;8.50;99.90
1083;DHT22;530;51.448;7.238;2023-11-21T03:07:41;8.50;99.90
1083;DHT22;530;51.448;7.238;2023-11-21T03:10:10;8.50;99.90
1083;DHT22;530;51.448;7.238;2023-11-21T03:12:37;8.50;99.90
1083;DHT22;530;51.448;7.238;2023-11-21T03:15:06;8.50;99.90
1083;DHT22;530;51.448;7.238;2023-11-21T03:17:32;8.50;99.90
1083;DHT22;530;51.448;7.238;2023-11-21T03:20:00;8.50;99.90
1083;DHT22;530;51.448;7.238;2023-11-21T03:22:26;8.50;99.90
1083;DHT22;530;51.448;7.238;2023-11-21T03:24:52;8.50;99.90
1083;DHT22;530;51.448;7.238;2023-11-21T03:27:18;8.50;99.90
1083;DHT22;530;51.448;7.238;2023-11-21T03:29:44;8.50;99.90
1083;DHT22;530;51.448;7.238;2023-11-21T03:32:12;8.60;99.90
1083;DHT22;530;51.448;7.238;2023-11-21T03:34:56;8.60;99.90
1083;DHT22;530;51.448;7.238;2023-11-21T03:37:22;8.60;99.90
1083;DHT22;530;51.448;7.238;2023-11-21T03:39:48;8.60;99.90
1083;DHT22;530;51.448;7.238;2023-11-21T03:42:13;8.60;99.90
1083;DHT22;530;51.448;7.238;2023-11-21T03:44:39;8.60;99.90
1083;DHT22;530;51.448;7.238;2023-11-21T03:47:05;8.60;99.90
1083;DHT22;530;51.448;7.238;2023-11-21T03:49:31;8.60;99.90
1083;DHT22;530;51.448;7.238;2023-11-21T03:51:56;8.50;99.90
1083;DHT22;530;51.448;7.238;2023-11-21T03:54:22;8.50;99.90
1083;DHT22;530;51.448;7.238;2023-11-21T03:56:48;8.50;99.90
1083;DHT22;530;51.448;7.238;2023-11-21T03:59:13;8.50;99.90
1083;DHT22;530;51.448;7.238;2023-11-21T04:01:39;8.50;99.90
1083;DHT22;530;51.448;7.238;2023-11-21T04:04:05;8.50;99.90
1083;DHT22;530;51.448;7.238;2023-11-21T04:06:30;8.50;99.90
1083;DHT22;530;51.448;7.238;2023-11-21T04:08:58;8.50;99.90
1083;DHT22;530;51.448;7.238;2023-11-21T04:11:24;8.60;99.90
1083;DHT22;530;51.448;7.238;2023-11-21T04:13:50;8.60;99.90
1083;DHT22;530;51.448;7.238;2023-11-21T04:16:15;8.60;99.90
1083;DHT22;530;51.448;7.238;2023-11-21T04:18:41;8.70;99.90
1083;DHT22;530;51.448;7.238;2023-11-21T04:21:07;8.70;99.90
1083;DHT22;530;51.448;7.238;2023-11-21T04:23:34;8.70;99.90
1083;DHT22;530;51.448;7.238;2023-11-21T04:26:00;8.70;99.90
1083;DHT22;530;51.448;7.238;2023-11-21T04:28:27;8.70;99.90
1083;DHT22;530;51.448;7.238;2023-11-21T04:30:53;8.70;99.90
1083;DHT22;530;51.448;7.238;2023-11-21T04:33:19;8.70;99.90
1083;DHT22;530;51.448;7.238;2023-11-21T04:35:45;8.70;99.90
1083;DHT22;530;51.448;7.238;2023-11-21T04:38:10;8.80;99.90
1083;DHT22;530;51.448;7.238;2023-11-21T04:40:36;8.70;99.90
1083;DHT22;530;51.448;7.238;2023-11-21T04:43:02;8.70;99.90
1083;DHT22;530;51.448;7.238;2023-11-21T04:45:29;8.70;99.90
1083;DHT22;530;51.448;7.238;2023-11-21T04:47:55;8.70;99.90
1083;DHT22;530;51.448;7.238;2023-11-21T04:50:21;8.60;99.90
1083;DHT22;530;51.448;7.238;2023-11-21T04:52:47;8.60;99.90
1083;DHT22;530;51.448;7.238;2023-11-21T04:55:13;8.60;99.90
1083;DHT22;530;51.448;7.238;2023-11-21T04:57:39;8.50;99.90
1083;DHT22;530;51.448;7.238;2023-11-21T05:00:08;8.50;99.90
1083;DHT22;530;51.448;7.238;2023-11-21T05:02:34;8.50;99.90
1083;DHT22;530;51.448;7.238;2023-11-21T05:05:01;8.40;99.90
1083;DHT22;530;51.448;7.238;2023-11-21T05:07:27;8.40;99.90
1083;DHT22;530;51.448;7.238;2023-11-21T05:09:55;8.30;99.90
1083;DHT22;530;51.448;7.238;2023-11-21T05:12:24;8.30;99.90
1083;DHT22;530;51.448;7.238;2023-11-21T05:14:51;8.20;99.90
1083;DHT22;530;51.448;7.238;2023-11-21T05:17:16;8.20;99.90
1083;DHT22;530;51.448;7.238;2023-11-21T05:19:42;8.10;99.90
1083;DHT22;530;51.448;7.238;2023-11-21T05:22:11;8.10;99.90
1083;DHT22;530;51.448;7.238;2023-11-21T05:24:37;8.00;99.90
1083;DHT22;530;51.448;7.238;2023-11-21T05:27:04;7.90;99.90
1083;DHT22;530;51.448;7.238;2023-11-21T05:29:30;7.90;99.90
1083;DHT22;530;51.448;7.238;2023-11-21T05:31:56;7.90;99.90
1083;DHT22;530;51.448;7.238;2023-11-21T05:34:22;7.80;99.90
1083;DHT22;530;51.448;7.238;2023-11-21T05:36:50;7.80;99.90
1083;DHT22;530;51.448;7.238;2023-11-21T05:39:16;7.80;99.90
1083;DHT22;530;51.448;7.238;2023-11-21T05:41:45;7.80;99.90
1083;DHT22;530;51.448;7.238;2023-11-21T05:44:11;7.90;99.90
1083;DHT22;530;51.448;7.238;2023-11-21T05:46:37;7.90;99.90
1083;DHT22;530;51.448;7.238;2023-11-21T05:49:03;7.90;99.90
1083;DHT22;530;51.448;7.238;2023-11-21T05:51:29;7.90;99.90
1083;DHT22;530;51.448;7.238;2023-11-21T05:53:54;8.00;99.90
1083;DHT22;530;51.448;7.238;2023-11-21T05:56:20;8.00;99.90
1083;DHT22;530;51.448;7.238;2023-11-21T05:58:46;8.10;99.90
1083;DHT22;530;51.448;7.238;2023-11-21T06:01:11;8.10;99.90
1083;DHT22;530;51.448;7.238;2023-11-21T06:03:38;8.10;99.90
1083;DHT22;530;51.448;7.238;2023-11-21T06:06:04;8.20;99.90
1083;DHT22;530;51.448;7.238;2023-11-21T06:08:30;8.10;99.90
1083;DHT22;530;51.448;7.238;2023-11-21T06:10:56;8.20;99.90
1083;DHT22;530;51.448;7.238;2023-11-21T06:13:21;8.10;99.90
1083;DHT22;530;51.448;7.238;2023-11-21T06:15:53;8.20;99.90
1083;DHT22;530;51.448;7.238;2023-11-21T06:18:18;8.20;99.90
1083;DHT22;530;51.448;7.238;2023-11-21T06:20:47;8.20;99.90
1083;DHT22;530;51.448;7.238;2023-11-21T06:23:12;8.30;99.90
1083;DHT22;530;51.448;7.238;2023-11-21T06:25:39;8.30;99.90
1083;DHT22;530;51.448;7.238;2023-11-21T06:28:05;8.30;99.90
1083;DHT22;530;51.448;7.238;2023-11-21T06:30:31;8.30;99.90
1083;DHT22;530;51.448;7.238;2023-11-21T06:32:57;8.30;99.90
1083;DHT22;530;51.448;7.238;2023-11-21T06:35:23;8.30;99.90
1083;DHT22;530;51.448;7.238;2023-11-21T06:37:49;8.30;99.90
1083;DHT22;530;51.448;7.238;2023-11-21T06:40:15;8.30;99.90
1083;DHT22;530;51.448;7.238;2023-11-21T06:42:41;8.30;99.90
1083;DHT22;530;51.448;7.238;2023-11-21T06:45:07;8.30;99.90
1083;DHT22;530;51.448;7.238;2023-11-21T06:47:33;8.30;99.90
1083;DHT22;530;51.448;7.238;2023-11-21T06:49:59;8.40;99.90
1083;DHT22;530;51.448;7.238;2023-11-21T06:52:26;8.40;99.90
1083;DHT22;530;51.448;7.238;2023-11-21T06:54:51;8.40;99.90
1083;DHT22;530;51.448;7.238;2023-11-21T06:57:17;8.40;99.90
1083;DHT22;530;51.448;7.238;2023-11-21T06:59:43;8.40;99.90
1083;DHT22;530;51.448;7.238;2023-11-21T07:02:09;8.40;99.90
1083;DHT22;530;51.448;7.238;2023-11-21T07:04:36;8.40;99.90
1083;DHT22;530;51.448;7.238;2023-11-21T07:07:05;8.40;99.90
1083;DHT22;530;51.448;7.238;2023-11-21T07:09:32;8.40;99.90
1083;DHT22;530;51.448;7.238;2023-11-21T07:11:58;8.40;99.90
1083;DHT22;530;51.448;7.238;2023-11-21T07:14:23;8.40;99.90
1083;DHT22;530;51.448;7.238;2023-11-21T07:16:49;8.40;99.90
1083;DHT22;530;51.448;7.238;2023-11-21T07:19:15;8.50;99.90
1083;DHT22;530;51.448;7.238;2023-11-21T07:21:40;8.50;99.90
1083;DHT22;530;51.448;7.238;2023-11-21T07:24:07;8.50;99.90
1083;DHT22;530;51.448;7.238;2023-11-21T07:26:34;8.60;99.90
1083;DHT22;530;51.448;7.238;2023-11-21T07:29:01;8.60;99.90
1083;DHT22;530;51.448;7.238;2023-11-21T07:31:26;8.60;99.90
1083;DHT22;530;51.448;7.238;2023-11-21T07:33:52;8.70;99.90
1083;DHT22;530;51.448;7.238;2023-11-21T07:36:19;8.70;99.90
1083;DHT22;530;51.448;7.238;2023-11-21T07:38:46;8.70;99.90
1083;DHT22;530;51.448;7.238;2023-11-21T07:41:12;8.80;99.90
1083;DHT22;530;51.448;7.238;2023-11-21T07:43:41;8.80;99.90
1083;DHT22;530;51.448;7.238;2023-11-21T07:46:08;8.80;99.90
1083;DHT22;530;51.448;7.238;2023-11-21T07:48:34;8.80;99.90
1083;DHT22;530;51.448;7.238;2023-11-21T07:51:01;8.80;99.90
1083;DHT22;530;51.448;7.238;2023-11-21T07:53:28;8.80;99.90
1083;DHT22;530;51.448;7.238;2023-11-21T07:56:02;8.80;99.90
1083;DHT22;530;51.448;7.238;2023-11-21T07:58:28;8.80;99.90
1083;DHT22;530;51.448;7.238;2023-11-21T08:00:54;8.80;99.90
1083;DHT22;530;51.448;7.238;2023-11-21T08:03:19;8.80;99.90
1083;DHT22;530;51.448;7.238;2023-11-21T08:05:46;8.90;99.90
1083;DHT22;530;51.448;7.238;2023-11-21T08:08:12;8.90;99.90
1083;DHT22;530;51.448;7.238;2023-11-21T08:10:38;9.00;99.90
1083;DHT22;530;51.448;7.238;2023-11-21T08:13:05;9.00;99.90
1083;DHT22;530;51.448;7.238;2023-11-21T08:15:31;9.00;99.90
1083;DHT22;530;51.448;7.238;2023-11-21T08:17:58;9.00;99.90
1083;DHT22;530;51.448;7.238;2023-11-21T08:20:26;9.00;99.90
1083;DHT22;530;51.448;7.238;2023-11-21T08:22:52;9.00;99.90
1083;DHT22;530;51.448;7.238;2023-11-21T08:25:18;9.10;99.90
1083;DHT22;530;51.448;7.238;2023-11-21T08:27:46;9.00;99.90
1083;DHT22;530;51.448;7.238;2023-11-21T08:30:12;9.10;99.90
1083;DHT22;530;51.448;7.238;2023-11-21T08:32:39;9.10;99.90
1083;DHT22;530;51.448;7.238;2023-11-21T08:35:07;9.10;99.90
1083;DHT22;530;51.448;7.238;2023-11-21T08:37:33;9.10;99.90
1083;DHT22;530;51.448;7.238;2023-11-21T08:40:06;9.10;99.90
1083;DHT22;530;51.448;7.238;2023-11-21T08:42:35;9.10;99.90
1083;DHT22;530;51.448;7.238;2023-11-21T08:45:01;9.20;99.90
1083;DHT22;530;51.448;7.238;2023-11-21T08:47:27;9.20;99.90
1083;DHT22;530;51.448;7.238;2023-11-21T08:49:52;9.30;99.90
1083;DHT22;530;51.448;7.238;2023-11-21T08:52:19;9.30;99.90
1083;DHT22;530;51.448;7.238;2023-11-21T08:54:54;9.30;99.90
1083;DHT22;530;51.448;7.238;2023-11-21T08:57:25;9.30;99.90
1083;DHT22;530;51.448;7.238;2023-11-21T08:59:51;9.30;99.90
1083;DHT22;530;51.448;7.238;2023-11-21T09:02:25;9.30;99.90
1083;DHT22;530;51.448;7.238;2023-11-21T09:04:51;9.30;99.90
1083;DHT22;530;51.448;7.238;2023-11-21T09:07:19;9.30;99.90
1083;DHT22;530;51.448;7.238;2023-11-21T09:09:46;9.30;99.90
1083;DHT22;530;51.448;7.238;2023-11-21T09:12:13;9.30;99.90
1083;DHT22;530;51.448;7.238;2023-11-21T09:14:38;9.30;99.90
1083;DHT22;530;51.448;7.238;2023-11-21T09:17:05;9.30;99.90
1083;DHT22;530;51.448;7.238;2023-11-21T09:19:40;9.40;99.90
1083;DHT22;530;51.448;7.238;2023-11-21T09:22:05;9.30;99.90
1083;DHT22;530;51.448;7.238;2023-11-21T09:24:34;9.40;99.90
1083;DHT22;530;51.448;7.238;2023-11-21T09:27:00;9.40;99.90
1083;DHT22;530;51.448;7.238;2023-11-21T09:29:26;9.30;99.90
1083;DHT22;530;51.448;7.238;2023-11-21T09:31:52;9.40;99.90
1083;DHT22;530;51.448;7.238;2023-11-21T09:34:23;9.40;99.90
1083;DHT22;530;51.448;7.238;2023-11-21T09:36:49;9.40;99.90
1083;DHT22;530;51.448;7.238;2023-11-21T09:39:15;9.40;99.90
1083;DHT22;530;51.448;7.238;2023-11-21T09:41:52;9.40;99.90
1083;DHT22;530;51.448;7.238;2023-11-21T09:45:05;9.40;99.90
1083;DHT22;530;51.448;7.238;2023-11-21T09:47:35;9.50;99.90
1083;DHT22;530;51.448;7.238;2023-11-21T09:50:04;9.50;99.90
1083;DHT22;530;51.448;7.238;2023-11-21T09:52:38;9.50;99.90
1083;DHT22;530;51.448;7.238;2023-11-21T09:55:07;9.60;99.90
1083;DHT22;530;51.448;7.238;2023-11-21T09:57:33;9.60;99.90
1083;DHT22;530;51.448;7.238;2023-11-21T10:00:01;9.60;99.90
1083;DHT22;530;51.448;7.238;2023-11-21T10:02:30;9.60;99.90
1083;DHT22;530;51.448;7.238;2023-11-21T10:05:00;9.60;99.90
1083;DHT22;530;51.448;7.238;2023-11-21T10:07:26;9.60;99.90
1083;DHT22;530;51.448;7.238;2023-11-21T10:09:53;9.60;99.90
1083;DHT22;530;51.448;7.238;2023-11-21T10:12:20;9.70;99.90
1083;DHT22;530;51.448;7.238;2023-11-21T10:14:48;9.70;99.90
1083;DHT22;530;51.448;7.238;2023-11-21T10:17:15;9.70;99.90
1083;DHT22;530;51.448;7.238;2023-11-21T10:19:47;9.70;99.90
1083;DHT22;530;51.448;7.238;2023-11-21T10:22:16;9.70;99.90
1083;DHT22;530;51.448;7.238;2023-11-21T10:24:42;9.70;99.90
1083;DHT22;530;51.448;7.238;2023-11-21T10:27:09;9.70;99.90
1083;DHT22;530;51.448;7.238;2023-11-21T10:29:35;9.70;99.90
1083;DHT22;530;51.448;7.238;2023-11-21T10:32:04;9.70;99.90
1083;DHT22;530;51.448;7.238;2023-11-21T10:34:31;9.70;99.90
1083;DHT22;530;51.448;7.238;2023-11-21T10:36:57;9.70;99.90
1083;DHT22;530;51.448;7.238;2023-11-21T10:39:25;9.70;99.90
1083;DHT22;530;51.448;7.238;2023-11-21T10:41:56;9.80;99.90
1083;DHT22;530;51.448;7.238;2023-11-21T10:44:21;9.80;99.90
1083;DHT22;530;51.448;7.238;2023-11-21T10:46:53;9.80;99.90
1083;DHT22;530;51.448;7.238;2023-11-21T10:49:24;9.90;99.90
1083;DHT22;530;51.448;7.238;2023-11-21T10:51:51;10.00;99.90
1083;DHT22;530;51.448;7.238;2023-11-21T10:54:25;10.10;99.90
1083;DHT22;530;51.448;7.238;2023-11-21T10:56:56;10.00;99.90
1083;DHT22;530;51.448;7.238;2023-11-21T10:59:22;10.10;99.90
1083;DHT22;530;51.448;7.238;2023-11-21T11:01:51;10.10;99.90
1083;DHT22;530;51.448;7.238;2023-11-21T11:04:21;10.10;99.90
1083;DHT22;530;51.448;7.238;2023-11-21T11:07:08;10.10;99.90
1083;DHT22;530;51.448;7.238;2023-11-21T11:09:37;10.10;99.90
1083;DHT22;530;51.448;7.238;2023-11-21T11:12:03;10.10;99.90
1083;DHT22;530;51.448;7.238;2023-11-21T11:14:30;10.10;99.90
1083;DHT22;530;51.448;7.238;2023-11-21T11:16:58;10.10;99.90
1083;DHT22;530;51.448;7.238;2023-11-21T11:19:25;10.10;99.90
1083;DHT22;530;51.448;7.238;2023-11-21T11:28:03;10.20;99.90
1083;DHT22;530;51.448;7.238;2023-11-21T11:30:47;10.20;99.90
1083;DHT22;530;51.448;7.238;2023-11-21T11:36:13;10.30;99.90
1083;DHT22;530;51.448;7.238;2023-11-21T11:38:45;10.30;99.90
1083;DHT22;530;51.448;7.238;2023-11-21T11:41:11;10.30;99.90
1083;DHT22;530;51.448;7.238;2023-11-21T11:43:38;10.30;99.90
1083;DHT22;530;51.448;7.238;2023-11-21T11:46:11;10.40;99.90
1083;DHT22;530;51.448;7.238;2023-11-21T11:48:40;10.40;99.90
1083;DHT22;530;51.448;7.238;2023-11-21T11:51:14;10.40;99.90
1083;DHT22;530;51.448;7.238;2023-11-21T11:53:44;10.40;99.90
1083;DHT22;530;51.448;7.238;2023-11-21T11:56:31;10.50;99.90
1083;DHT22;530;51.448;7.238;2023-11-21T11:59:01;10.50;99.90
1083;DHT22;530;51.448;7.238;2023-11-21T12:01:32;10.50;99.90
1083;DHT22;530;51.448;7.238;2023-11-21T12:07:02;10.50;99.90
1083;DHT22;530;51.448;7.238;2023-11-21T12:09:29;10.50;99.90
1083;DHT22;530;51.448;7.238;2023-11-21T12:11:56;10.50;99.90
1083;DHT22;530;51.448;7.238;2023-11-21T12:14:22;10.50;99.90
1083;DHT22;530;51.448;7.238;2023-11-21T12:16:49;10.50;99.90
1083;DHT22;530;51.448;7.238;2023-11-21T12:19:14;10.50;99.90
1083;DHT22;530;51.448;7.238;2023-11-21T12:21:40;10.50;99.90
1083;DHT22;530;51.448;7.238;2023-11-21T12:24:07;10.50;99.90
1083;DHT22;530;51.448;7.238;2023-11-21T12:26:42;10.50;99.90
1083;DHT22;530;51.448;7.238;2023-11-21T12:29:08;10.50;99.90
1083;DHT22;530;51.448;7.238;2023-11-21T12:31:34;10.40;99.90
1083;DHT22;530;51.448;7.238;2023-11-21T12:34:00;10.50;99.90
1083;DHT22;530;51.448;7.238;2023-11-21T12:36:26;10.50;99.90
1083;DHT22;530;51.448;7.238;2023-11-21T12:38:54;10.50;99.90
1083;DHT22;530;51.448;7.238;2023-11-21T12:41:20;10.50;99.90
1083;DHT22;530;51.448;7.238;2023-11-21T12:43:47;10.40;99.90
1083;DHT22;530;51.448;7.238;2023-11-21T12:46:13;10.40;99.90
1083;DHT22;530;51.448;7.238;2023-11-21T12:48:41;10.50;99.90
1083;DHT22;530;51.448;7.238;2023-11-21T12:51:10;10.50;99.90
1083;DHT22;530;51.448;7.238;2023-11-21T12:53:44;10.50;99.90
1083;DHT22;530;51.448;7.238;2023-11-21T12:56:11;10.60;99.90
1083;DHT22;530;51.448;7.238;2023-11-21T12:58:37;10.60;99.90
1083;DHT22;530;51.448;7.238;2023-11-21T13:01:07;10.50;99.90
1083;DHT22;530;51.448;7.238;2023-11-21T13:03:40;10.40;99.90
1083;DHT22;530;51.448;7.238;2023-11-21T13:06:08;10.40;99.90
1083;DHT22;530;51.448;7.238;2023-11-21T13:08:33;10.30;99.90
1083;DHT22;530;51.448;7.238;2023-11-21T13:11:00;10.20;99.90
1083;DHT22;530;51.448;7.238;2023-11-21T13:13:28;10.20;99.90
1083;DHT22;530;51.448;7.238;2023-11-21T13:15:55;10.10;99.90
1083;DHT22;530;51.448;7.238;2023-11-21T13:18:25;10.10;99.90
1083;DHT22;530;51.448;7.238;2023-11-21T13:20:55;10.20;99.90
1083;DHT22;530;51.448;7.238;2023-11-21T13:23:22;10.20;99.90
1083;DHT22;530;51.448;7.238;2023-11-21T13:25:48;10.20;99.90
1083;DHT22;530;51.448;7.238;2023-11-21T13:28:15;10.20;99.90
1083;DHT22;530;51.448;7.238;2023-11-21T13:30:41;10.20;99.90
1083;DHT22;530;51.448;7.238;2023-11-21T13:33:08;10.20;99.90
1083;DHT22;530;51.448;7.238;2023-11-21T13:35:37;10.20;99.90
1083;DHT22;530;51.448;7.238;2023-11-21T13:38:11;10.10;99.90
1083;DHT22;530;51.448;7.238;2023-11-21T13:40:39;10.10;99.90
1083;DHT22;530;51.448;7.238;2023-11-21T13:43:16;10.10;99.90
1083;DHT22;530;51.448;7.238;2023-11-21T13:45:45;10.10;99.90
1083;DHT22;530;51.448;7.238;2023-11-21T13:48:12;10.10;99.90
1083;DHT22;530;51.448;7.238;2023-11-21T13:50:57;10.10;99.90
1083;DHT22;530;51.448;7.238;2023-11-21T13:53:38;10.10;99.90
1083;DHT22;530;51.448;7.238;2023-11-21T13:56:05;10.10;99.90
1083;DHT22;530;51.448;7.238;2023-11-21T13:58:30;10.10;99.90
1083;DHT22;530;51.448;7.238;2023-11-21T14:01:26;10.10;99.90
1083;DHT22;530;51.448;7.238;2023-11-21T14:03:55;10.10;99.90
1083;DHT22;530;51.448;7.238;2023-11-21T14:06:36;10.10;99.90
1083;DHT22;530;51.448;7.238;2023-11-21T14:09:17;10.00;99.90
1083;DHT22;530;51.448;7.238;2023-11-21T14:11:55;10.00;99.90
1083;DHT22;530;51.448;7.238;2023-11-21T14:14:24;10.00;99.90
1083;DHT22;530;51.448;7.238;2023-11-21T14:16:56;9.90;99.90
1083;DHT22;530;51.448;7.238;2023-11-21T14:19:23;10.00;99.90
1083;DHT22;530;51.448;7.238;2023-11-21T14:21:52;10.00;99.90
1083;DHT22;530;51.448;7.238;2023-11-21T14:24:18;10.00;99.90
1083;DHT22;530;51.448;7.238;2023-11-21T14:26:45;9.90;99.90
1083;DHT22;530;51.448;7.238;2023-11-21T14:29:15;9.90;99.90
1083;DHT22;530;51.448;7.238;2023-11-21T14:31:48;9.90;99.90
1083;DHT22;530;51.448;7.238;2023-11-21T14:34:15;9.90;99.90
1083;DHT22;530;51.448;7.238;2023-11-21T14:36:41;9.90;99.90
1083;DHT22;530;51.448;7.238;2023-11-21T14:39:08;9.90;99.90
1083;DHT22;530;51.448;7.238;2023-11-21T14:41:41;9.90;99.90
1083;DHT22;530;51.448;7.238;2023-11-21T14:44:10;9.90;99.90
1083;DHT22;530;51.448;7.238;2023-11-21T14:46:38;9.90;99.90
1083;DHT22;530;51.448;7.238;2023-11-21T14:49:05;9.90;99.90
1083;DHT22;530;51.448;7.238;2023-11-21T14:51:57;10.00;99.90
1083;DHT22;530;51.448;7.238;2023-11-21T14:54:30;9.90;99.90
1083;DHT22;530;51.448;7.238;2023-11-21T14:57:07;9.90;99.90
1083;DHT22;530;51.448;7.238;2023-11-21T14:59:43;9.90;99.90
1083;DHT22;530;51.448;7.238;2023-11-21T15:02:08;9.90;99.90
1083;DHT22;530;51.448;7.238;2023-11-21T15:04:44;9.90;99.90
1083;DHT22;530;51.448;7.238;2023-11-21T15:07:10;9.90;99.90
1083;DHT22;530;51.448;7.238;2023-11-21T15:09:39;9.90;99.90
1083;DHT22;530;51.448;7.238;2023-11-21T15:12:07;9.80;99.90
1083;DHT22;530;51.448;7.238;2023-11-21T15:14:47;9.80;99.90
1083;DHT22;530;51.448;7.238;2023-11-21T15:17:16;9.70;99.90
1083;DHT22;530;51.448;7.238;2023-11-21T15:19:56;9.60;99.90
1083;DHT22;530;51.448;7.238;2023-11-21T15:22:22;9.60;99.90
1083;DHT22;530;51.448;7.238;2023-11-21T15:24:48;9.60;99.90
1083;DHT22;530;51.448;7.238;2023-11-21T15:27:15;9.60;99.90
1083;DHT22;530;51.448;7.238;2023-11-21T15:29:44;9.60;99.90
1083;DHT22;530;51.448;7.238;2023-11-21T15:32:10;9.50;99.90
1083;DHT22;530;51.448;7.238;2023-11-21T15:34:36;9.60;99.90
1083;DHT22;530;51.448;7.238;2023-11-21T15:37:03;9.60;99.90
1083;DHT22;530;51.448;7.238;2023-11-21T15:39:30;9.60;99.90
1083;DHT22;530;51.448;7.238;2023-11-21T15:41:59;9.60;99.90
1083;DHT22;530;51.448;7.238;2023-11-21T15:44:25;9.60;99.90
1083;DHT22;530;51.448;7.238;2023-11-21T15:46:52;9.50;99.90
1083;DHT22;530;51.448;7.238;2023-11-21T15:49:18;9.50;99.90
1083;DHT22;530;51.448;7.238;2023-11-21T15:51:47;9.50;99.90
1083;DHT22;530;51.448;7.238;2023-11-21T15:54:22;9.50;99.90
1083;DHT22;530;51.448;7.238;2023-11-21T15:56:49;9.50;99.90
1083;DHT22;530;51.448;7.238;2023-11-21T15:59:15;9.40;99.90
1083;DHT22;530;51.448;7.238;2023-11-21T16:01:42;9.30;99.90
1083;DHT22;530;51.448;7.238;2023-11-21T16:04:13;9.30;99.90
1083;DHT22;530;51.448;7.238;2023-11-21T16:06:46;9.30;99.90
1083;DHT22;530;51.448;7.238;2023-11-21T16:09:13;9.30;99.90
1083;DHT22;530;51.448;7.238;2023-11-21T16:11:46;9.30;99.90
1083;DHT22;530;51.448;7.238;2023-11-21T16:14:12;9.30;99.90
1083;DHT22;530;51.448;7.238;2023-11-21T16:16:38;9.20;99.90
1083;DHT22;530;51.448;7.238;2023-11-21T16:19:04;9.10;99.90
1083;DHT22;530;51.448;7.238;2023-11-21T16:21:30;9.10;99.90
1083;DHT22;530;51.448;7.238;2023-11-21T16:23:56;9.10;99.90
1083;DHT22;530;51.448;7.238;2023-11-21T16:26:22;9.10;99.90
1083;DHT22;530;51.448;7.238;2023-11-21T16:28:48;8.90;99.90
1083;DHT22;530;51.448;7.238;2023-11-21T16:31:22;8.90;99.90
1083;DHT22;530;51.448;7.238;2023-11-21T16:33:48;8.90;99.90
1083;DHT22;530;51.448;7.238;2023-11-21T16:36:13;8.90;99.90
1083;DHT22;530;51.448;7.238;2023-11-21T16:38:39;8.80;99.90
1083;DHT22;530;51.448;7.238;2023-11-21T16:41:05;8.80;99.90
1083;DHT22;530;51.448;7.238;2023-11-21T16:43:30;8.80;99.90
1083;DHT22;530;51.448;7.238;2023-11-21T16:45:57;8.70;99.90
1083;DHT22;530;51.448;7.238;2023-11-21T16:48:23;8.60;99.90